Time;durP1;ratioP1;P1;durP2;ratioP2;P2;SDS_P1;SDS_P2;PMS_P1;PMS_P2;Temp;Humidity;BMP_temperature;BMP_pressure;BME280_temperature;BME280_humidity;BME280_pressure;Samples;Min_cycle;Max_cycle;Signal;HPM_P1;HPM_P2
2023/08/21 00:01:34;;;;;;;10.20;9.30;;;19.20;99.90;;;;;;5072261;28;20231;-76
2023/08/21 00:04:02;;;;;;;9.63;8.73;;;19.10;99.90;;;;;;5089760;28;20214;-79
2023/08/21 00:06:33;;;;;;;9.80;8.80;;;19.10;99.90;;;;;;5092386;28;20313;-76
2023/08/21 00:09:01;;;;;;;9.77;8.77;;;19.00;99.90;;;;;;5092745;28;20214;-79
2023/08/21 00:11:30;;;;;;;9.27;8.37;;;19.00;99.90;;;;;;5085118;28;20208;-77
2023/08/21 00:13:58;;;;;;;10.20;9.30;;;19.00;99.90;;;;;;5073029;28;20285;-77
2023/08/21 00:16:28;;;;;;;10.40;9.30;;;19.00;99.90;;;;;;5072315;28;20207;-77
2023/08/21 00:18:56;;;;;;;10.67;9.67;;;19.00;99.90;;;;;;5071821;28;20758;-77
2023/08/21 00:21:25;;;;;;;9.97;9.07;;;18.90;99.90;;;;;;5071455;28;20662;-77
2023/08/21 00:23:54;;;;;;;10.40;9.40;;;18.90;99.90;;;;;;5072015;28;20280;-78
2023/08/21 00:26:23;;;;;;;10.80;9.70;;;18.80;99.90;;;;;;5071882;28;20269;-78
2023/08/21 00:28:51;;;;;;;10.50;9.50;;;18.80;99.90;;;;;;5084680;28;20218;-78
2023/08/21 00:31:19;;;;;;;10.73;9.50;;;18.70;99.90;;;;;;5091701;28;20219;-78
2023/08/21 00:33:47;;;;;;;11.50;10.40;;;18.70;99.90;;;;;;5091779;28;20206;-77
2023/08/21 00:36:15;;;;;;;12.57;10.50;;;18.70;99.90;;;;;;5091611;28;20878;-77
2023/08/21 00:38:44;;;;;;;11.00;9.93;;;18.70;99.90;;;;;;5071347;28;20227;-76
2023/08/21 00:41:13;;;;;;;12.13;10.77;;;18.70;99.90;;;;;;5071746;28;20203;-77
2023/08/21 00:43:42;;;;;;;12.17;11.17;;;18.70;99.90;;;;;;5071174;28;20595;-77
2023/08/21 00:46:11;;;;;;;11.57;10.47;;;18.70;99.90;;;;;;5071473;28;20215;-76
2023/08/21 00:48:39;;;;;;;12.07;10.97;;;18.70;99.90;;;;;;5071294;28;20296;-78
2023/08/21 00:51:07;;;;;;;12.17;10.97;;;18.60;99.90;;;;;;5071682;28;20306;-77
2023/08/21 00:53:36;;;;;;;12.10;10.90;;;18.60;99.90;;;;;;5071306;28;20243;-76
2023/08/21 00:56:04;;;;;;;11.93;10.73;;;18.60;99.90;;;;;;5071110;28;20294;-77
2023/08/21 00:58:34;;;;;;;12.20;11.10;;;18.60;99.90;;;;;;5071394;28;20207;-77
2023/08/21 01:01:04;;;;;;;12.17;10.93;;;18.60;99.90;;;;;;5075282;28;20231;-77
2023/08/21 01:03:32;;;;;;;12.47;11.27;;;18.60;99.90;;;;;;5091455;28;20210;-77
2023/08/21 01:06:00;;;;;;;12.50;11.30;;;18.50;99.90;;;;;;5073397;28;20250;-76
2023/08/21 01:08:36;;;;;;;12.50;11.20;;;18.50;99.90;;;;;;5071119;28;20211;-76
2023/08/21 01:11:10;;;;;;;13.37;12.07;;;18.50;99.90;;;;;;5071528;28;20264;-77
2023/08/21 01:13:50;;;;;;;12.87;11.67;;;18.50;99.90;;;;;;5070990;28;20211;-76
2023/08/21 01:16:18;;;;;;;11.97;10.83;;;18.50;99.90;;;;;;5071435;28;20282;-78
2023/08/21 01:18:49;;;;;;;13.10;11.83;;;18.60;99.90;;;;;;5071128;28;20219;-77
2023/08/21 01:21:18;;;;;;;13.03;11.93;;;18.50;99.90;;;;;;5071299;28;20234;-77
2023/08/21 01:23:47;;;;;;;12.63;11.33;;;18.60;99.90;;;;;;5071235;28;20261;-78
2023/08/21 01:26:15;;;;;;;11.33;10.33;;;18.60;99.90;;;;;;5070864;28;20250;-77
2023/08/21 01:28:44;;;;;;;12.93;11.70;;;18.60;99.90;;;;;;5070234;28;20219;-78
2023/08/21 01:31:19;;;;;;;11.97;10.77;;;18.60;99.90;;;;;;5071049;28;20220;-78
2023/08/21 01:33:51;;;;;;;12.10;10.80;;;18.60;99.90;;;;;;5071173;28;20211;-77
2023/08/21 01:36:20;;;;;;;11.50;10.30;;;18.60;99.90;;;;;;5071054;28;20192;-78
2023/08/21 01:38:50;;;;;;;11.80;10.60;;;18.70;99.90;;;;;;5070661;28;20312;-77
2023/08/21 01:41:18;;;;;;;11.80;10.70;;;18.70;99.90;;;;;;5071659;28;20623;-78
2023/08/21 01:43:46;;;;;;;12.37;11.20;;;18.70;99.90;;;;;;5071129;28;20216;-76
2023/08/21 01:46:15;;;;;;;12.37;11.13;;;18.70;99.90;;;;;;5070743;28;20219;-77
2023/08/21 01:48:43;;;;;;;11.80;10.70;;;18.80;99.90;;;;;;5073981;28;20208;-77
2023/08/21 01:51:11;;;;;;;13.00;11.80;;;18.70;99.90;;;;;;5074789;28;20203;-77
2023/08/21 01:53:39;;;;;;;12.10;10.90;;;18.70;99.90;;;;;;5074536;28;20211;-76
2023/08/21 01:56:09;;;;;;;13.23;11.83;;;18.70;99.90;;;;;;5074186;28;20261;-77
2023/08/21 01:58:37;;;;;;;12.13;10.93;;;18.70;99.90;;;;;;5074831;28;20264;-78
2023/08/21 02:01:05;;;;;;;12.53;11.43;;;18.70;99.90;;;;;;5090979;28;20632;-77
2023/08/21 02:03:33;;;;;;;13.33;10.83;;;18.70;99.90;;;;;;5094452;28;20297;-78
2023/08/21 02:06:02;;;;;;;11.77;10.67;;;18.70;99.90;;;;;;5077960;28;20277;-77
2023/08/21 02:08:33;;;;;;;12.90;11.60;;;18.70;99.90;;;;;;5074809;28;20243;-77
2023/08/21 02:11:01;;;;;;;12.80;11.60;;;18.70;99.90;;;;;;5074294;28;20210;-77
2023/08/21 02:13:30;;;;;;;13.33;11.97;;;18.70;99.90;;;;;;5074183;28;20212;-78
2023/08/21 02:15:58;;;;;;;12.63;11.43;;;18.70;99.90;;;;;;5073985;28;20689;-76
2023/08/21 02:18:26;;;;;;;13.57;12.10;;;18.70;99.90;;;;;;5074280;28;20313;-76
2023/08/21 02:20:54;;;;;;;15.43;12.10;;;18.70;99.90;;;;;;5073881;28;20261;-78
2023/08/21 02:23:24;;;;;;;12.23;10.97;;;18.70;99.90;;;;;;5074186;28;20207;-79
2023/08/21 02:25:52;;;;;;;12.30;11.20;;;18.70;99.90;;;;;;5073899;28;20296;-78
2023/08/21 02:28:20;;;;;;;13.67;11.47;;;18.60;99.90;;;;;;5074097;28;20257;-77
2023/08/21 02:30:50;;;;;;;12.90;11.67;;;18.60;99.90;;;;;;5073802;28;20215;-75
2023/08/21 02:33:18;;;;;;;13.40;12.03;;;18.50;99.90;;;;;;5074195;28;20192;-76
2023/08/21 02:35:46;;;;;;;12.37;11.10;;;18.50;99.90;;;;;;5073674;28;20218;-76
2023/08/21 02:38:14;;;;;;;13.10;11.80;;;18.40;99.90;;;;;;5074174;28;20235;-76
2023/08/21 02:40:42;;;;;;;13.57;11.33;;;18.40;99.90;;;;;;5073701;28;20243;-77
2023/08/21 02:43:11;;;;;;;13.20;11.80;;;18.30;99.90;;;;;;5073612;28;20208;-77
2023/08/21 02:45:39;;;;;;;12.90;11.63;;;18.20;99.90;;;;;;5073279;28;20269;-77
2023/08/21 02:48:08;;;;;;;13.47;12.13;;;18.20;99.90;;;;;;5074397;28;20614;-76
2023/08/21 02:50:36;;;;;;;11.80;10.70;;;18.10;99.90;;;;;;5074554;28;20214;-76
2023/08/21 02:53:05;;;;;;;13.37;11.97;;;18.10;99.90;;;;;;5074008;28;20344;-78
2023/08/21 02:55:33;;;;;;;12.20;10.93;;;18.00;99.90;;;;;;5073176;28;20203;-78
2023/08/21 02:58:01;;;;;;;12.90;11.60;;;17.90;99.90;;;;;;5075216;28;20211;-77
2023/08/21 03:00:29;;;;;;;14.13;12.70;;;17.90;99.90;;;;;;5093272;28;20269;-78
2023/08/21 03:02:57;;;;;;;12.13;11.03;;;17.80;99.90;;;;;;5075189;28;20642;-75
2023/08/21 03:05:26;;;;;;;12.70;11.57;;;17.80;99.90;;;;;;5072721;28;20263;-77
2023/08/21 03:07:55;;;;;;;12.70;11.27;;;17.80;99.90;;;;;;5073078;28;20265;-77
2023/08/21 03:10:23;;;;;;;12.80;11.50;;;17.70;99.90;;;;;;5087282;28;20640;-77
2023/08/21 03:12:51;;;;;;;14.80;13.00;;;17.70;99.90;;;;;;5093500;28;20256;-76
2023/08/21 03:15:19;;;;;;;12.77;11.67;;;17.70;99.90;;;;;;5092693;28;20253;-77
2023/08/21 03:17:48;;;;;;;13.10;11.83;;;17.60;99.90;;;;;;5093033;28;20759;-76
2023/08/21 03:20:17;;;;;;;12.80;11.60;;;17.60;99.90;;;;;;5072869;28;20227;-78
2023/08/21 03:22:47;;;;;;;14.90;12.37;;;17.60;99.90;;;;;;5093310;28;20264;-77
2023/08/21 03:25:15;;;;;;;12.80;11.60;;;17.50;99.90;;;;;;5074241;28;20207;-77
2023/08/21 03:27:44;;;;;;;13.30;11.90;;;17.50;99.90;;;;;;5072948;28;20620;-77
2023/08/21 03:30:14;;;;;;;12.90;11.60;;;17.50;99.90;;;;;;5072805;28;20261;-77
2023/08/21 03:32:43;;;;;;;12.40;11.20;;;17.50;99.90;;;;;;5092629;28;20222;-76
2023/08/21 03:35:11;;;;;;;12.30;11.30;;;17.50;99.90;;;;;;5092704;28;20214;-77
2023/08/21 03:37:39;;;;;;;12.77;11.53;;;17.50;99.90;;;;;;5092916;28;20207;-77
2023/08/21 03:40:10;;;;;;;13.47;12.17;;;17.40;99.90;;;;;;5091486;28;20214;-78
2023/08/21 03:42:38;;;;;;;12.50;11.33;;;17.40;99.90;;;;;;5092834;28;20222;-77
2023/08/21 03:45:08;;;;;;;13.27;12.07;;;17.40;99.90;;;;;;5092363;28;20226;-76
2023/08/21 03:47:36;;;;;;;14.03;12.63;;;17.40;99.90;;;;;;5091175;28;20726;-77
2023/08/21 03:50:04;;;;;;;14.23;12.80;;;17.40;99.90;;;;;;5092741;28;20636;-78
2023/08/21 03:52:32;;;;;;;14.90;13.30;;;17.40;99.90;;;;;;5092719;28;20214;-78
2023/08/21 03:55:00;;;;;;;14.73;13.40;;;17.40;99.90;;;;;;5087878;28;20204;-78
2023/08/21 03:57:30;;;;;;;14.23;12.77;;;17.40;99.90;;;;;;5082057;28;20203;-76
2023/08/21 03:59:58;;;;;;;14.23;12.77;;;17.30;99.90;;;;;;5092188;28;20210;-76
2023/08/21 04:02:26;;;;;;;15.47;13.83;;;17.30;99.90;;;;;;5092148;28;20272;-77
2023/08/21 04:04:54;;;;;;;13.80;12.60;;;17.30;99.90;;;;;;5077340;28;20235;-77
2023/08/21 04:07:22;;;;;;;13.93;12.63;;;17.30;99.90;;;;;;5072287;28;20231;-77
2023/08/21 04:09:50;;;;;;;13.87;12.57;;;17.30;99.90;;;;;;5071282;28;20241;-78
2023/08/21 04:12:18;;;;;;;13.50;12.20;;;17.30;99.90;;;;;;5072014;28;20203;-76
2023/08/21 04:14:48;;;;;;;14.10;12.80;;;17.30;99.90;;;;;;5089322;28;20214;-75
2023/08/21 04:17:21;;;;;;;13.80;12.50;;;17.20;99.90;;;;;;5092126;28;20211;-76
2023/08/21 04:19:50;;;;;;;14.90;13.30;;;17.20;99.90;;;;;;5092269;28;20206;-77
2023/08/21 04:22:18;;;;;;;13.80;12.43;;;17.20;99.90;;;;;;5076094;28;20232;-77
2023/08/21 04:24:46;;;;;;;13.47;12.27;;;17.20;99.90;;;;;;5071472;28;20223;-77
2023/08/21 04:27:14;;;;;;;14.67;13.07;;;17.20;99.90;;;;;;5072105;28;20207;-76
2023/08/21 04:29:42;;;;;;;13.70;12.37;;;17.10;99.90;;;;;;5071728;28;20280;-76
2023/08/21 04:32:12;;;;;;;13.40;12.10;;;17.10;99.90;;;;;;5071674;28;20207;-76
2023/08/21 04:34:40;;;;;;;13.43;12.13;;;17.10;99.90;;;;;;5073557;28;20237;-77
2023/08/21 04:37:10;;;;;;;15.80;12.73;;;17.10;99.90;;;;;;5090745;28;20558;-76
2023/08/21 04:39:38;;;;;;;15.53;12.57;;;17.10;99.90;;;;;;5088834;28;20203;-78
2023/08/21 04:42:06;;;;;;;14.73;13.30;;;17.10;99.90;;;;;;5091132;28;20222;-77
2023/08/21 04:44:34;;;;;;;15.57;13.37;;;17.20;99.90;;;;;;5071291;28;20203;-77
2023/08/21 04:47:22;;;;;;;15.53;12.93;;;17.20;99.90;;;;;;5071492;28;20327;-77
2023/08/21 04:49:51;;;;;;;14.90;13.20;;;17.20;99.90;;;;;;5071903;28;20211;-78
2023/08/21 04:52:19;;;;;;;14.03;12.57;;;17.20;99.90;;;;;;5071375;28;20731;-78
2023/08/21 04:54:47;;;;;;;13.53;12.23;;;17.20;99.90;;;;;;5086335;28;20256;-78
2023/08/21 04:57:17;;;;;;;11.50;10.47;;;17.30;99.90;;;;;;5092295;28;20257;-75
2023/08/21 04:59:45;;;;;;;12.33;11.20;;;17.40;99.90;;;;;;5091842;28;20268;-76
2023/08/21 05:02:13;;;;;;;13.50;11.57;;;17.70;99.90;;;;;;5092113;28;20253;-74
2023/08/21 05:04:43;;;;;;;13.43;11.10;;;17.80;99.90;;;;;;5082431;28;20203;-77
2023/08/21 05:07:11;;;;;;;12.53;11.03;;;18.00;99.90;;;;;;5092450;28;20210;-77
2023/08/21 05:09:39;;;;;;;12.13;10.83;;;18.10;99.90;;;;;;5092611;28;20214;-77
2023/08/21 05:12:08;;;;;;;11.17;10.13;;;18.20;99.90;;;;;;5091394;28;20214;-77
2023/08/21 05:14:37;;;;;;;13.53;10.43;;;18.40;99.90;;;;;;5071689;28;20246;-77
2023/08/21 05:17:05;;;;;;;10.47;9.50;;;18.40;99.90;;;;;;5071985;28;20203;-76
2023/08/21 05:19:33;;;;;;;10.87;9.73;;;18.50;99.90;;;;;;5071921;28;20608;-78
2023/08/21 05:22:02;;;;;;;10.50;9.60;;;18.60;99.90;;;;;;5072066;28;20227;-78
2023/08/21 05:24:32;;;;;;;11.67;10.00;;;18.70;99.90;;;;;;5075434;28;20256;-78
2023/08/21 05:27:00;;;;;;;10.63;9.57;;;18.80;99.90;;;;;;5075334;28;20708;-78
2023/08/21 05:29:28;;;;;;;10.00;9.10;;;18.90;99.90;;;;;;5075391;28;20218;-79
2023/08/21 05:31:56;;;;;;;9.90;8.90;;;19.00;99.90;;;;;;5075449;28;20573;-78
2023/08/21 05:34:25;;;;;;;10.27;8.90;;;19.00;99.90;;;;;;5075029;28;20231;-77
2023/08/21 05:36:54;;;;;;;11.53;9.13;;;19.10;99.90;;;;;;5075458;28;20214;-79
2023/08/21 05:39:24;;;;;;;10.70;9.43;;;19.30;99.90;;;;;;5075749;28;20215;-77
2023/08/21 05:41:52;;;;;;;10.53;9.20;;;19.30;99.90;;;;;;5085847;28;20218;-77
2023/08/21 05:44:21;;;;;;;10.77;9.67;;;19.40;99.90;;;;;;5094789;28;20235;-78
2023/08/21 05:46:49;;;;;;;12.70;9.10;;;19.30;99.90;;;;;;5094566;28;20202;-78
2023/08/21 05:49:17;;;;;;;10.50;9.40;;;19.30;99.90;;;;;;5095191;28;20332;-78
2023/08/21 05:51:45;;;;;;;10.07;8.57;;;19.40;99.90;;;;;;5094888;28;20279;-78
2023/08/21 05:54:13;;;;;;;10.63;9.53;;;19.30;99.90;;;;;;5094220;28;20203;-79
2023/08/21 05:56:43;;;;;;;13.60;10.97;;;19.40;99.90;;;;;;5094772;28;20199;-77
2023/08/21 05:59:11;;;;;;;11.30;10.10;;;19.50;99.90;;;;;;5094799;28;20203;-74
2023/08/21 06:01:40;;;;;;;10.80;9.57;;;19.60;99.90;;;;;;5092006;28;20392;-74
2023/08/21 06:04:08;;;;;;;11.13;10.03;;;19.70;99.90;;;;;;5092386;28;20211;-74
2023/08/21 06:06:36;;;;;;;13.77;10.50;;;19.80;99.90;;;;;;5094578;28;20652;-76
2023/08/21 06:09:04;;;;;;;12.53;10.07;;;19.90;99.90;;;;;;5095184;28;20200;-75
2023/08/21 06:11:32;;;;;;;14.00;10.37;;;20.00;99.90;;;;;;5092752;28;20207;-74
2023/08/21 06:14:02;;;;;;;13.90;11.07;;;20.20;99.90;;;;;;5092340;28;20284;-79
2023/08/21 06:16:30;;;;;;;11.53;10.37;;;20.30;99.90;;;;;;5094497;28;20664;-75
2023/08/21 06:18:58;;;;;;;10.90;9.80;;;20.60;99.90;;;;;;5094497;28;20297;-76
2023/08/21 06:21:26;;;;;;;12.43;10.03;;;20.80;99.90;;;;;;5078394;28;20207;-77
2023/08/21 06:23:54;;;;;;;12.13;10.23;;;21.10;99.90;;;;;;5074332;28;20207;-77
2023/08/21 06:26:22;;;;;;;11.87;10.17;;;21.30;99.90;;;;;;5074195;28;20247;-79
2023/08/21 06:28:52;;;;;;;12.10;8.70;;;21.50;99.90;;;;;;5075144;28;20642;-77
2023/08/21 06:31:21;;;;;;;12.47;9.23;;;21.70;99.90;;;;;;5074346;28;20281;-76
2023/08/21 06:33:50;;;;;;;9.20;8.20;;;21.90;99.90;;;;;;5073765;28;20218;-74
2023/08/21 06:36:18;;;;;;;9.10;8.10;;;22.20;99.90;;;;;;5074230;28;20250;-75
2023/08/21 06:38:46;;;;;;;10.23;7.70;;;22.20;99.90;;;;;;5089237;28;20211;-78
2023/08/21 06:41:14;;;;;;;12.70;7.60;;;22.50;99.90;;;;;;5093769;28;20244;-76
2023/08/21 06:43:42;;;;;;;10.07;7.17;;;22.90;99.90;;;;;;5093595;28;20260;-74
2023/08/21 06:46:12;;;;;;;9.97;7.10;;;23.20;99.90;;;;;;5092186;28;21572;-76
2023/08/21 06:48:43;;;;;;;10.33;7.23;;;23.40;99.90;;;;;;5090334;28;20206;-77
2023/08/21 06:51:11;;;;;;;9.70;6.90;;;23.50;99.90;;;;;;5094128;28;20733;-75
2023/08/21 06:53:44;;;;;;;34.87;8.23;;;23.60;99.90;;;;;;5094235;28;20202;-77
2023/08/21 06:56:12;;;;;;;40.73;8.40;;;24.00;99.90;;;;;;5093687;28;20210;-77
2023/08/21 06:58:40;;;;;;;9.40;6.17;;;24.60;99.90;;;;;;5076338;28;20211;-76
2023/08/21 07:01:08;;;;;;;10.30;6.50;;;25.10;99.90;;;;;;5073741;28;20208;-74
2023/08/21 07:03:37;;;;;;;10.00;6.37;;;25.60;99.90;;;;;;5073804;28;20250;-74
2023/08/21 07:06:07;;;;;;;10.47;6.30;;;25.70;99.90;;;;;;5073369;28;20214;-74
2023/08/21 07:08:35;;;;;;;10.67;6.50;;;25.70;99.90;;;;;;5073733;28;20297;-75
2023/08/21 07:11:04;;;;;;;11.03;6.77;;;25.60;99.90;;;;;;5073748;28;20212;-74
2023/08/21 07:13:32;;;;;;;7.67;6.70;;;25.60;99.90;;;;;;5077974;28;20222;-74
2023/08/21 07:16:02;;;;;;;8.83;7.23;;;25.50;99.90;;;;;;5093766;28;20215;-76
2023/08/21 07:18:32;;;;;;;12.70;6.97;;;25.40;99.90;;;;;;5093540;28;20290;-79
2023/08/21 07:21:00;;;;;;;10.00;6.70;;;25.80;99.90;;;;;;5093549;28;20264;-79
2023/08/21 07:23:30;;;;;;;10.03;6.37;;;26.20;99.90;;;;;;5078516;28;20223;-77
2023/08/21 07:25:58;;;;;;;9.80;6.40;;;26.70;99.90;;;;;;5072759;28;20697;-79
2023/08/21 07:28:27;;;;;;;9.27;6.40;;;27.60;99.90;;;;;;5073268;28;20260;-78
2023/08/21 07:30:58;;;;;;;8.48;6.25;;;28.40;99.90;;;;;;5072600;28;20231;-80
2023/08/21 07:33:27;;;;;;;9.00;5.57;;;29.40;99.90;;;;;;5072742;28;20719;-79
2023/08/21 07:36:01;;;;;;;6.82;5.65;;;30.60;98.30;;;;;;5074982;28;20266;-78
2023/08/21 07:38:31;;;;;;;10.88;5.55;;;31.60;93.60;;;;;;5092150;28;20199;-76
2023/08/21 07:41:05;;;;;;;7.55;5.68;;;31.90;91.80;;;;;;5092741;28;20302;-78
2023/08/21 07:43:34;;;;;;;8.40;5.50;;;32.50;87.10;;;;;;5072562;28;20276;-79
2023/08/21 07:46:06;;;;;;;7.25;5.80;;;31.80;89.50;;;;;;5071036;28;20598;-76
2023/08/21 07:48:36;;;;;;;9.55;5.55;;;33.30;83.10;;;;;;5072211;28;20856;-78
2023/08/21 07:51:04;;;;;;;10.30;5.13;;;33.70;79.60;;;;;;5075378;28;20221;-77
2023/08/21 07:53:34;;;;;;;8.10;5.07;;;33.70;78.40;;;;;;5085934;28;20252;-77
2023/08/21 07:56:03;;;;;;;7.47;4.82;;;33.90;77.40;;;;;;5072326;28;20204;-77
2023/08/21 07:58:32;;;;;;;13.50;5.57;;;34.20;72.90;;;;;;5072178;28;20214;-76
2023/08/21 08:01:01;;;;;;;7.97;5.00;;;34.10;72.80;;;;;;5072205;28;20674;-76
2023/08/21 08:03:29;;;;;;;7.80;4.90;;;34.30;71.00;;;;;;5072004;28;20223;-77
2023/08/21 08:05:57;;;;;;;6.72;5.07;;;34.40;70.60;;;;;;5072031;28;20218;-76
2023/08/21 08:08:29;;;;;;;9.45;4.75;;;35.10;66.90;;;;;;5071985;28;20622;-76
2023/08/21 08:11:02;;;;;;;7.53;5.28;;;35.20;65.90;;;;;;5087580;28;20206;-76
2023/08/21 08:13:30;;;;;;;5.97;5.28;;;35.50;61.10;;;;;;5092161;28;20241;-76
2023/08/21 08:15:58;;;;;;;8.38;5.28;;;35.40;60.00;;;;;;5092027;28;20206;-76
2023/08/21 08:18:26;;;;;;;7.50;5.35;;;35.70;60.70;;;;;;5084210;28;20204;-76
2023/08/21 08:20:54;;;;;;;6.93;5.25;;;35.90;58.50;;;;;;5072146;28;20282;-76
2023/08/21 08:23:23;;;;;;;8.95;5.53;;;35.80;57.80;;;;;;5071770;28;20228;-76
2023/08/21 08:25:51;;;;;;;12.60;4.93;;;35.90;58.10;;;;;;5071611;28;20218;-77
2023/08/21 08:28:21;;;;;;;11.73;5.50;;;36.20;57.20;;;;;;5075147;28;20277;-74
2023/08/21 08:30:49;;;;;;;8.68;5.57;;;36.70;57.20;;;;;;5076566;28;20202;-76
2023/08/21 08:33:17;;;;;;;10.10;5.90;;;36.70;55.90;;;;;;5089390;28;20256;-75
2023/08/21 08:35:46;;;;;;;9.35;5.50;;;36.30;56.90;;;;;;5087460;28;20271;-77
2023/08/21 08:38:14;;;;;;;8.50;6.00;;;36.60;58.90;;;;;;5089950;28;20661;-75
2023/08/21 08:40:45;;;;;;;6.93;5.50;;;36.50;55.50;;;;;;5089796;28;20832;-74
2023/08/21 08:43:14;;;;;;;11.77;5.82;;;37.20;53.90;;;;;;5085049;28;20218;-77
2023/08/21 08:45:48;;;;;;;9.20;5.60;;;37.00;53.80;;;;;;5089125;28;20296;-75
2023/08/21 08:48:17;;;;;;;8.63;5.88;;;37.40;53.30;;;;;;5087562;28;20198;-75
2023/08/21 08:50:46;;;;;;;7.85;5.63;;;37.60;54.00;;;;;;5091815;28;20295;-74
2023/08/21 08:53:15;;;;;;;9.52;5.93;;;37.40;53.40;;;;;;5072063;28;20199;-76
2023/08/21 08:55:45;;;;;;;8.25;5.95;;;37.30;52.00;;;;;;5072387;28;20264;-75
2023/08/21 08:58:13;;;;;;;6.03;5.15;;;36.80;52.90;;;;;;5095080;28;20213;-74
2023/08/21 09:00:42;;;;;;;9.05;4.78;;;36.90;53.00;;;;;;5091906;28;20623;-75
2023/08/21 09:03:12;;;;;;;6.40;5.22;;;37.10;53.20;;;;;;5095498;28;20206;-76
2023/08/21 09:05:41;;;;;;;7.55;5.47;;;37.80;49.90;;;;;;5092918;28;20268;-76
2023/08/21 09:08:14;;;;;;;8.63;5.50;;;36.50;50.20;;;;;;5095188;28;20206;-74
2023/08/21 09:10:45;;;;;;;7.07;5.30;;;36.00;52.10;;;;;;5091310;28;20203;-76
2023/08/21 09:13:15;;;;;;;8.05;5.38;;;35.50;53.60;;;;;;5095496;28;20195;-77
2023/08/21 09:15:46;;;;;;;8.30;5.03;;;36.50;53.90;;;;;;5093109;28;20202;-76
2023/08/21 09:18:15;;;;;;;10.05;5.18;;;36.60;53.40;;;;;;5092120;28;20203;-74
2023/08/21 09:20:44;;;;;;;9.80;5.45;;;36.10;53.50;;;;;;5095535;28;20294;-77
2023/08/21 09:23:16;;;;;;;8.90;5.28;;;36.00;57.00;;;;;;5094906;28;20683;-77
2023/08/21 09:25:47;;;;;;;11.32;5.30;;;37.00;54.00;;;;;;5093126;28;20187;-76
2023/08/21 09:28:16;;;;;;;8.50;5.15;;;37.10;51.70;;;;;;5092134;28;20211;-76
2023/08/21 09:30:52;;;;;;;6.70;4.82;;;37.70;50.20;;;;;;5095175;28;20206;-76
2023/08/21 09:33:22;;;;;;;8.80;5.15;;;38.00;50.50;;;;;;5092575;28;20293;-76
2023/08/21 09:35:52;;;;;;;9.70;5.68;;;38.20;49.10;;;;;;5095263;28;20645;-76
2023/08/21 09:38:23;;;;;;;14.52;6.28;;;37.90;47.80;;;;;;5076863;28;20212;-77
2023/08/21 09:40:52;;;;;;;7.82;5.60;;;37.80;48.20;;;;;;5085886;28;20215;-74
2023/08/21 09:43:22;;;;;;;8.35;5.13;;;37.20;51.90;;;;;;5092082;28;20207;-75
2023/08/21 09:45:55;;;;;;;7.90;5.75;;;38.20;49.10;;;;;;5091768;28;20207;-76
2023/08/21 09:48:24;;;;;;;11.05;5.82;;;39.20;48.50;;;;;;5094543;28;20674;-75
2023/08/21 09:50:52;;;;;;;7.15;5.63;;;39.30;47.20;;;;;;5094882;28;20206;-77
2023/08/21 09:53:22;;;;;;;8.25;5.80;;;38.80;47.70;;;;;;5092044;28;20206;-76
2023/08/21 09:55:54;;;;;;;7.80;5.90;;;38.60;45.50;;;;;;5093202;28;20213;-76
2023/08/21 09:58:22;;;;;;;8.38;6.07;;;37.80;49.60;;;;;;5092269;28;20206;-77
2023/08/21 10:00:56;;;;;;;7.45;5.82;;;39.50;46.50;;;;;;5094332;28;20543;-77
2023/08/21 10:03:25;;;;;;;8.02;5.93;;;39.00;45.10;;;;;;5090225;28;20260;-73
2023/08/21 10:05:58;;;;;;;6.88;5.70;;;38.30;46.00;;;;;;5093803;28;20238;-76
2023/08/21 10:08:28;;;;;;;6.38;5.22;;;38.30;47.50;;;;;;5093497;28;20229;-76
2023/08/21 10:10:59;;;;;;;7.38;5.72;;;38.20;43.50;;;;;;5092974;28;20715;-75
2023/08/21 10:13:33;;;;;;;7.70;5.30;;;38.30;45.60;;;;;;5093664;28;20636;-76
2023/08/21 10:16:03;;;;;;;7.63;5.95;;;38.60;47.20;;;;;;5094264;28;20578;-75
2023/08/21 10:18:33;;;;;;;10.07;5.47;;;39.20;42.50;;;;;;5091800;28;20240;-75
2023/08/21 10:21:15;;;;;;;7.82;5.60;;;39.80;43.90;;;;;;5091040;28;20210;-77
2023/08/21 10:23:46;;;;;;;8.95;5.60;;;39.70;42.00;;;;;;5092946;28;20679;-74
2023/08/21 10:26:15;;;;;;;6.95;5.30;;;39.30;43.30;;;;;;5094371;28;20211;-76
2023/08/21 10:28:53;;;;;;;5.57;5.05;;;39.40;43.10;;;;;;5094786;28;20206;-76
2023/08/21 10:31:33;;;;;;;5.72;5.13;;;40.20;42.50;;;;;;5074431;28;20240;-79
2023/08/21 10:34:03;;;;;;;7.50;5.03;;;39.70;39.90;;;;;;5074146;28;20277;-76
2023/08/21 10:37:09;;;;;;;7.30;5.03;;;39.40;42.80;;;;;;5074041;28;20276;-76
2023/08/21 10:39:39;;;;;;;7.75;5.53;;;38.80;38.40;;;;;;5073955;28;20282;-77
2023/08/21 10:42:13;;;;;;;9.20;5.90;;;40.00;39.90;;;;;;5073684;28;20282;-76
2023/08/21 10:44:51;;;;;;;7.13;5.38;;;39.90;39.60;;;;;;5073518;28;20577;-78
2023/08/21 10:47:22;;;;;;;8.48;5.10;;;39.20;40.90;;;;;;5073994;28;20199;-75
2023/08/21 10:49:53;;;;;;;5.88;5.38;;;39.40;39.20;;;;;;5073700;28;20219;-77
2023/08/21 10:52:23;;;;;;;7.65;5.20;;;39.20;38.50;;;;;;5074313;28;20561;-76
2023/08/21 10:54:53;;;;;;;10.32;5.35;;;39.50;39.70;;;;;;5073816;28;20190;-76
2023/08/21 10:57:22;;;;;;;7.15;4.50;;;39.70;39.40;;;;;;5073765;28;20207;-76
2023/08/21 10:59:56;;;;;;;5.20;4.60;;;38.00;38.60;;;;;;5073925;28;20207;-78
2023/08/21 11:02:26;;;;;;;10.25;5.32;;;38.60;39.50;;;;;;5073808;28;20207;-77
2023/08/21 11:04:54;;;;;;;7.45;4.85;;;38.00;40.50;;;;;;5078245;28;20237;-77
2023/08/21 11:07:23;;;;;;;5.18;4.60;;;38.00;41.10;;;;;;5097525;28;20305;-76
2023/08/21 11:09:52;;;;;;;5.55;4.43;;;37.40;38.00;;;;;;5098778;28;20814;-76
2023/08/21 11:12:22;;;;;;;7.13;4.50;;;37.60;40.00;;;;;;5096036;28;20657;-78
2023/08/21 11:14:51;;;;;;;7.55;4.30;;;37.40;38.90;;;;;;5092205;28;20208;-78
2023/08/21 11:17:19;;;;;;;4.35;3.95;;;36.50;38.20;;;;;;5081182;28;20214;-78
2023/08/21 11:19:51;;;;;;;6.47;4.05;;;35.70;38.00;;;;;;5075870;28;20711;-77
2023/08/21 11:22:19;;;;;;;5.18;4.20;;;36.00;42.30;;;;;;5073424;28;20215;-76
2023/08/21 11:24:50;;;;;;;6.50;4.22;;;35.80;41.40;;;;;;5078986;28;20223;-77
2023/08/21 11:27:19;;;;;;;5.38;3.55;;;35.60;39.10;;;;;;5093729;28;20191;-77
2023/08/21 11:29:52;;;;;;;4.20;3.67;;;35.80;39.10;;;;;;5093527;28;20217;-77
2023/08/21 11:32:22;;;;;;;4.20;3.60;;;35.60;38.50;;;;;;5088980;28;20226;-77
2023/08/21 11:34:54;;;;;;;4.45;3.70;;;35.70;37.50;;;;;;5072746;28;20215;-77
2023/08/21 11:37:23;;;;;;;4.45;3.80;;;35.40;36.90;;;;;;5072719;28;20250;-77
2023/08/21 11:39:53;;;;;;;5.28;3.63;;;35.50;41.10;;;;;;5072989;28;20203;-77
2023/08/21 11:42:23;;;;;;;3.50;3.05;;;35.60;37.50;;;;;;5086773;28;20207;-78
2023/08/21 11:44:53;;;;;;;5.90;3.10;;;35.30;32.90;;;;;;5092602;28;20711;-77
2023/08/21 11:47:22;;;;;;;4.57;3.28;;;35.50;33.50;;;;;;5092695;28;20684;-75
2023/08/21 11:49:52;;;;;;;5.70;3.58;;;35.50;37.00;;;;;;5078899;28;20207;-76
2023/08/21 11:52:22;;;;;;;6.18;4.00;;;35.60;40.00;;;;;;5073364;28;20564;-76
2023/08/21 11:54:51;;;;;;;6.53;4.22;;;35.80;39.80;;;;;;5093600;28;20369;-75
2023/08/21 11:57:20;;;;;;;4.03;3.63;;;35.70;39.40;;;;;;5093216;28;20210;-78
2023/08/21 11:59:52;;;;;;;6.70;3.53;;;35.30;38.20;;;;;;5092595;28;20660;-76
2023/08/21 12:02:23;;;;;;;5.88;3.90;;;35.20;38.00;;;;;;5072164;28;20694;-77
2023/08/21 12:05:02;;;;;;;4.65;3.90;;;34.90;39.80;;;;;;5072216;28;20716;-75
2023/08/21 12:07:30;;;;;;;5.55;3.97;;;35.10;40.30;;;;;;5073291;28;20213;-76
2023/08/21 12:09:58;;;;;;;4.60;4.05;;;35.00;38.20;;;;;;5072316;28;20214;-77
2023/08/21 12:12:27;;;;;;;5.80;4.05;;;35.40;43.30;;;;;;5072401;28;20221;-76
2023/08/21 12:14:55;;;;;;;6.50;4.72;;;35.50;43.80;;;;;;5072275;28;20260;-78
2023/08/21 12:17:23;;;;;;;4.95;4.15;;;35.60;41.90;;;;;;5072271;28;20215;-77
2023/08/21 12:19:51;;;;;;;9.00;4.78;;;35.30;41.50;;;;;;5072131;28;20280;-77
2023/08/21 12:22:21;;;;;;;6.50;4.50;;;35.40;43.70;;;;;;5072454;28;20211;-77
2023/08/21 12:24:49;;;;;;;5.80;5.05;;;34.90;44.80;;;;;;5072133;28;20207;-78
2023/08/21 12:27:20;;;;;;;9.68;5.10;;;35.10;45.00;;;;;;5072080;28;20261;-77
2023/08/21 12:29:48;;;;;;;9.40;4.97;;;35.00;44.00;;;;;;5072180;28;20824;-77
2023/08/21 12:32:16;;;;;;;6.07;4.68;;;34.70;45.00;;;;;;5071911;28;20215;-78
2023/08/21 12:34:45;;;;;;;8.93;5.25;;;34.50;45.10;;;;;;5072209;28;20246;-76
2023/08/21 12:37:13;;;;;;;7.88;5.55;;;34.70;44.80;;;;;;5072028;28;20259;-76
2023/08/21 12:39:45;;;;;;;8.38;5.20;;;34.00;45.00;;;;;;5072265;28;20215;-76
2023/08/21 12:42:13;;;;;;;7.95;5.00;;;34.30;46.80;;;;;;5072475;28;20222;-76
2023/08/21 12:44:42;;;;;;;6.22;4.85;;;34.60;46.80;;;;;;5080381;28;20283;-76
2023/08/21 12:47:10;;;;;;;7.82;5.20;;;34.80;45.20;;;;;;5092655;28;20227;-76
2023/08/21 12:49:38;;;;;;;6.88;4.88;;;34.80;45.60;;;;;;5091940;28;20665;-78